Time;durP1;ratioP1;P1;durP2;ratioP2;P2;SDS_P1;SDS_P2;PMS_P1;PMS_P2;Temp;Humidity;BMP_temperature;BMP_pressure;BME280_temperature;BME280_humidity;BME280_pressure;Samples;Min_cycle;Max_cycle;Signal;HPM_P1;HPM_P2
2022/12/01 00:01:55;;;;;;;85.87;30.47;;;;;;;;;;5020416;28;20214;-66
2022/12/01 00:04:20;;;;;;;85.73;29.70;;;;;;;;;;5031476;28;20249;-66
2022/12/01 00:06:45;;;;;;;80.50;28.93;;;;;;;;;;5045971;28;20666;-66
2022/12/01 00:11:54;;;;;;;77.33;28.30;;;;;;;;;;5043678;28;20663;-66
2022/12/01 00:14:20;;;;;;;74.53;27.30;;;;;;;;;;5023945;28;20269;-65
2022/12/01 00:16:45;;;;;;;86.07;30.80;;;;;;;;;;5023613;28;20231;-65
2022/12/01 00:19:10;;;;;;;79.93;29.43;;;;;;;;;;5018216;28;20181;-65
2022/12/01 00:21:35;;;;;;;88.97;32.57;;;;;;;;;;5025704;28;20259;-65
2022/12/01 00:24:01;;;;;;;85.70;30.70;;;;;;;;;;5034891;28;20260;-65
2022/12/01 00:26:27;;;;;;;91.17;31.40;;;;;;;;;;5038467;28;20188;-65
2022/12/01 00:28:54;;;;;;;81.50;30.23;;;;;;;;;;5032321;28;20178;-65
2022/12/01 00:31:20;;;;;;;93.30;33.13;;;;;;;;;;5034665;28;20182;-65
2022/12/01 00:33:45;;;;;;;81.87;30.03;;;;;;;;;;5022241;28;20626;-66
2022/12/01 00:36:11;;;;;;;86.97;30.73;;;;;;;;;;5021644;28;20169;-66
2022/12/01 00:38:36;;;;;;;82.87;30.67;;;;;;;;;;5028571;28;20214;-66
2022/12/01 00:41:02;;;;;;;80.90;27.97;;;;;;;;;;5035840;28;20259;-66
2022/12/01 00:43:28;;;;;;;78.30;29.50;;;;;;;;;;5036207;28;20270;-66
2022/12/01 00:45:55;;;;;;;80.80;28.80;;;;;;;;;;5029015;28;20178;-66
2022/12/01 00:48:20;;;;;;;79.93;29.53;;;;;;;;;;5038119;28;20186;-66
2022/12/01 00:50:46;;;;;;;78.97;30.30;;;;;;;;;;5026929;28;20281;-66
2022/12/01 00:53:11;;;;;;;80.30;30.60;;;;;;;;;;5027689;28;20246;-66
2022/12/01 00:55:39;;;;;;;84.23;30.90;;;;;;;;;;5025963;28;20190;-65
2022/12/01 00:58:04;;;;;;;76.00;30.23;;;;;;;;;;5026956;28;20214;-66
2022/12/01 01:00:29;;;;;;;80.50;30.37;;;;;;;;;;5026453;28;20246;-66
2022/12/01 01:02:55;;;;;;;80.20;30.97;;;;;;;;;;5026168;28;20189;-66
2022/12/01 01:05:20;;;;;;;78.30;28.13;;;;;;;;;;5028449;28;20185;-66
2022/12/01 01:07:45;;;;;;;81.43;31.70;;;;;;;;;;5027727;28;20273;-66
2022/12/01 01:10:11;;;;;;;90.33;31.40;;;;;;;;;;5034805;28;20316;-65
2022/12/01 01:12:37;;;;;;;82.60;30.70;;;;;;;;;;5024728;28;20548;-65
2022/12/01 01:15:04;;;;;;;92.43;32.53;;;;;;;;;;5032157;28;20174;-66
2022/12/01 01:17:29;;;;;;;100.30;32.83;;;;;;;;;;5025547;28;20178;-65
2022/12/01 01:19:54;;;;;;;104.63;34.00;;;;;;;;;;5023359;28;20206;-65
2022/12/01 01:22:20;;;;;;;103.17;34.23;;;;;;;;;;5026856;28;20246;-65
2022/12/01 01:24:45;;;;;;;108.53;34.97;;;;;;;;;;5025436;28;20194;-65
2022/12/01 01:27:10;;;;;;;99.63;34.07;;;;;;;;;;5028180;28;20186;-66
2022/12/01 01:29:36;;;;;;;103.20;35.87;;;;;;;;;;5020903;28;20201;-66
2022/12/01 01:32:03;;;;;;;96.10;33.80;;;;;;;;;;5025937;28;20193;-65
2022/12/01 01:34:28;;;;;;;96.73;33.80;;;;;;;;;;5025409;28;20516;-65
2022/12/01 01:36:53;;;;;;;96.00;34.43;;;;;;;;;;5023205;28;20178;-65
2022/12/01 01:39:19;;;;;;;91.80;32.90;;;;;;;;;;5022363;28;20591;-65
2022/12/01 01:41:44;;;;;;;90.10;32.47;;;;;;;;;;5031137;28;20293;-65
2022/12/01 01:44:47;;;;;;;99.80;33.97;;;;;;;;;;5030418;28;20181;-66
2022/12/01 01:47:12;;;;;;;89.57;32.20;;;;;;;;;;5035879;28;20188;-65
2022/12/01 01:49:39;;;;;;;100.90;33.20;;;;;;;;;;5031014;28;20276;-65
2022/12/01 01:52:05;;;;;;;99.07;34.77;;;;;;;;;;5028131;28;20649;-65
2022/12/01 01:54:34;;;;;;;88.67;33.70;;;;;;;;;;5027017;28;20221;-65
2022/12/01 01:57:00;;;;;;;95.17;33.03;;;;;;;;;;5027910;28;20244;-65
2022/12/01 01:59:36;;;;;;;95.87;33.70;;;;;;;;;;5025353;28;20622;-65
2022/12/01 02:02:07;;;;;;;92.63;33.57;;;;;;;;;;5024974;28;20681;-65
2022/12/01 02:04:44;;;;;;;90.93;33.47;;;;;;;;;;5015459;28;20637;-65
2022/12/01 02:07:11;;;;;;;96.27;34.43;;;;;;;;;;5020448;28;20241;-66
2022/12/01 02:09:36;;;;;;;91.47;34.93;;;;;;;;;;5024318;28;20189;-66
2022/12/01 02:12:28;;;;;;;93.53;34.40;;;;;;;;;;5026865;28;20191;-66
2022/12/01 02:15:17;;;;;;;90.00;33.23;;;;;;;;;;5001055;28;20297;-66
2022/12/01 02:17:54;;;;;;;88.50;34.90;;;;;;;;;;5015129;28;20556;-66
2022/12/01 02:20:52;;;;;;;100.00;36.70;;;;;;;;;;5019380;28;20224;-65
2022/12/01 02:23:36;;;;;;;102.27;34.10;;;;;;;;;;5016900;28;20262;-65
2022/12/01 02:26:26;;;;;;;105.63;35.47;;;;;;;;;;5027215;28;20222;-65
2022/12/01 02:29:07;;;;;;;98.27;35.87;;;;;;;;;;5029307;28;20217;-65
2022/12/01 02:31:50;;;;;;;100.97;36.27;;;;;;;;;;5027899;28;20214;-65
2022/12/01 02:34:42;;;;;;;113.40;38.17;;;;;;;;;;5021120;28;20207;-66
2022/12/01 02:37:19;;;;;;;106.57;36.63;;;;;;;;;;5028589;28;20629;-66
2022/12/01 02:40:06;;;;;;;108.60;37.53;;;;;;;;;;5012789;28;20178;-65
2022/12/01 02:43:02;;;;;;;105.43;36.60;;;;;;;;;;5027421;28;20739;-65
2022/12/01 02:45:57;;;;;;;105.77;37.70;;;;;;;;;;5030498;28;20501;-65
2022/12/01 02:48:27;;;;;;;101.43;37.37;;;;;;;;;;5020320;28;20520;-65
2022/12/01 02:50:55;;;;;;;105.77;37.73;;;;;;;;;;5024190;28;20178;-65
2022/12/01 02:53:21;;;;;;;112.90;38.07;;;;;;;;;;5029729;28;20202;-65
2022/12/01 02:55:51;;;;;;;107.97;38.13;;;;;;;;;;5023227;28;20221;-65
2022/12/01 02:58:17;;;;;;;102.20;37.50;;;;;;;;;;5028493;28;20190;-66
2022/12/01 03:00:55;;;;;;;96.23;36.47;;;;;;;;;;5028402;28;20233;-66
2022/12/01 03:03:35;;;;;;;97.17;38.27;;;;;;;;;;5024760;28;20182;-66
2022/12/01 03:06:36;;;;;;;90.83;36.83;;;;;;;;;;5026816;28;20801;-66
2022/12/01 03:09:28;;;;;;;90.07;37.30;;;;;;;;;;5015312;28;20197;-66
2022/12/01 03:12:17;;;;;;;89.03;37.10;;;;;;;;;;5025797;28;20204;-65
2022/12/01 03:15:27;;;;;;;88.77;36.70;;;;;;;;;;5033766;28;20201;-65
2022/12/01 03:18:04;;;;;;;81.40;35.07;;;;;;;;;;5009882;28;20296;-66
2022/12/01 03:20:54;;;;;;;89.23;36.90;;;;;;;;;;5027195;28;20262;-65
2022/12/01 03:23:23;;;;;;;83.10;34.60;;;;;;;;;;5029328;28;20233;-65
2022/12/01 03:25:53;;;;;;;87.80;36.13;;;;;;;;;;5026293;28;20277;-66
2022/12/01 03:28:27;;;;;;;85.93;36.13;;;;;;;;;;5028411;28;20525;-66
2022/12/01 03:30:57;;;;;;;86.20;37.40;;;;;;;;;;5024965;28;20182;-66
2022/12/01 03:33:31;;;;;;;85.07;36.00;;;;;;;;;;5028033;28;20297;-66
2022/12/01 03:36:06;;;;;;;84.60;34.90;;;;;;;;;;5027701;28;20189;-66
2022/12/01 03:38:35;;;;;;;77.57;34.30;;;;;;;;;;5025726;28;20176;-65
2022/12/01 03:41:08;;;;;;;91.33;36.13;;;;;;;;;;5038381;28;20211;-66
2022/12/01 03:43:38;;;;;;;83.93;35.53;;;;;;;;;;5028100;28;20170;-65
2022/12/01 03:46:16;;;;;;;84.13;36.40;;;;;;;;;;5033619;28;20720;-65
2022/12/01 03:48:42;;;;;;;84.33;35.30;;;;;;;;;;5028287;28;20174;-66
2022/12/01 03:51:33;;;;;;;90.60;36.30;;;;;;;;;;5025857;28;20277;-65
2022/12/01 03:54:11;;;;;;;89.17;34.50;;;;;;;;;;5022687;28;20248;-66
2022/12/01 03:56:44;;;;;;;81.60;34.63;;;;;;;;;;5031238;28;20178;-65
2022/12/01 03:59:10;;;;;;;87.17;35.07;;;;;;;;;;5026626;28;20601;-66
2022/12/01 04:01:36;;;;;;;84.43;36.53;;;;;;;;;;5022394;28;20230;-66
2022/12/01 04:04:07;;;;;;;91.43;36.07;;;;;;;;;;5026381;28;20684;-66
2022/12/01 04:06:33;;;;;;;85.90;35.10;;;;;;;;;;5033520;28;20189;-65
2022/12/01 04:08:58;;;;;;;90.20;37.60;;;;;;;;;;5025557;28;20192;-66
2022/12/01 04:14:08;;;;;;;97.57;37.00;;;;;;;;;;5026957;28;20251;-66
2022/12/01 04:16:33;;;;;;;86.23;36.20;;;;;;;;;;5025756;28;20194;-65
2022/12/01 04:18:59;;;;;;;87.03;35.40;;;;;;;;;;5021496;28;20195;-65
2022/12/01 04:21:24;;;;;;;91.27;36.43;;;;;;;;;;5022587;28;20279;-65
2022/12/01 04:24:01;;;;;;;91.70;36.53;;;;;;;;;;5027012;28;20856;-65
2022/12/01 04:26:29;;;;;;;93.90;37.00;;;;;;;;;;5023996;28;20186;-65
2022/12/01 04:28:54;;;;;;;82.13;35.57;;;;;;;;;;5033030;28;20243;-65
2022/12/01 04:31:20;;;;;;;91.53;37.47;;;;;;;;;;5026197;28;20178;-65
2022/12/01 04:33:45;;;;;;;90.20;37.77;;;;;;;;;;5027904;28;20182;-65
2022/12/01 04:36:10;;;;;;;91.17;36.80;;;;;;;;;;5026048;28;20269;-65
2022/12/01 04:38:36;;;;;;;84.10;35.20;;;;;;;;;;5029799;28;20174;-65
2022/12/01 04:41:10;;;;;;;91.13;36.70;;;;;;;;;;5025640;28;20208;-66
2022/12/01 04:43:36;;;;;;;93.27;35.50;;;;;;;;;;5040194;28;20615;-65
2022/12/01 04:46:02;;;;;;;92.50;37.37;;;;;;;;;;5034942;28;20186;-65
2022/12/01 04:48:28;;;;;;;94.97;37.20;;;;;;;;;;5036176;28;20216;-65
2022/12/01 04:50:53;;;;;;;89.23;36.87;;;;;;;;;;5019837;28;20247;-65
2022/12/01 04:53:19;;;;;;;89.13;35.30;;;;;;;;;;5026589;28;20189;-65
2022/12/01 04:55:44;;;;;;;96.87;37.87;;;;;;;;;;5014575;28;20437;-65
2022/12/01 04:58:09;;;;;;;93.00;37.63;;;;;;;;;;5016683;28;20590;-65
2022/12/01 05:00:36;;;;;;;88.70;36.53;;;;;;;;;;5024352;28;20280;-65
2022/12/01 05:03:02;;;;;;;103.10;38.00;;;;;;;;;;5025573;28;20709;-65
2022/12/01 05:05:28;;;;;;;98.03;37.53;;;;;;;;;;5026093;28;20187;-65
2022/12/01 05:07:53;;;;;;;100.93;37.40;;;;;;;;;;5026207;28;20708;-65
2022/12/01 05:10:18;;;;;;;98.50;37.23;;;;;;;;;;5019899;28;20257;-65
2022/12/01 05:12:47;;;;;;;103.90;38.97;;;;;;;;;;5028648;28;20186;-65
2022/12/01 05:15:13;;;;;;;103.37;39.60;;;;;;;;;;5034906;28;20196;-65
2022/12/01 05:17:38;;;;;;;112.03;38.77;;;;;;;;;;5030786;28;20186;-66
2022/12/01 05:22:48;;;;;;;107.13;37.63;;;;;;;;;;5027244;28;20249;-66
2022/12/01 05:25:13;;;;;;;114.60;40.67;;;;;;;;;;5021700;28;20199;-65
2022/12/01 05:27:39;;;;;;;112.53;39.00;;;;;;;;;;5024696;28;20237;-65
2022/12/01 05:30:05;;;;;;;104.23;38.37;;;;;;;;;;5016990;28;20201;-65
2022/12/01 05:32:30;;;;;;;113.33;40.10;;;;;;;;;;5024995;28;20178;-65
2022/12/01 05:34:55;;;;;;;113.33;39.53;;;;;;;;;;5024703;28;20853;-65
2022/12/01 05:37:21;;;;;;;120.83;42.63;;;;;;;;;;5029957;28;20221;-65
2022/12/01 05:39:46;;;;;;;116.80;39.47;;;;;;;;;;5030519;28;20182;-66
2022/12/01 05:42:11;;;;;;;118.60;42.23;;;;;;;;;;5028676;28;20194;-66
2022/12/01 05:44:38;;;;;;;121.43;41.30;;;;;;;;;;5025116;28;20213;-66
2022/12/01 05:47:03;;;;;;;115.37;40.00;;;;;;;;;;5031098;28;20194;-65
2022/12/01 05:49:28;;;;;;;121.17;39.63;;;;;;;;;;5032142;28;20586;-66
2022/12/01 05:51:54;;;;;;;117.43;41.50;;;;;;;;;;5018021;28;20240;-66
2022/12/01 05:54:19;;;;;;;127.27;42.07;;;;;;;;;;5019740;28;20199;-66
2022/12/01 05:56:44;;;;;;;123.87;41.27;;;;;;;;;;5022614;28;20182;-65
2022/12/01 05:59:10;;;;;;;114.23;39.80;;;;;;;;;;5019497;28;20191;-66
2022/12/01 06:01:35;;;;;;;127.80;42.73;;;;;;;;;;5013442;28;20603;-65
2022/12/01 06:04:00;;;;;;;128.63;41.73;;;;;;;;;;5019209;28;20568;-65
2022/12/01 06:06:26;;;;;;;134.80;41.73;;;;;;;;;;5017988;28;20222;-65
2022/12/01 06:08:51;;;;;;;133.83;41.40;;;;;;;;;;5018831;28;20194;-65
2022/12/01 06:11:16;;;;;;;130.97;42.57;;;;;;;;;;5025504;28;20251;-66
2022/12/01 06:13:42;;;;;;;131.13;42.10;;;;;;;;;;5026143;28;20214;-66
2022/12/01 06:16:07;;;;;;;124.90;42.57;;;;;;;;;;5018703;28;20182;-65
2022/12/01 06:18:35;;;;;;;126.77;41.77;;;;;;;;;;5027952;28;20218;-65
2022/12/01 06:21:01;;;;;;;120.80;41.47;;;;;;;;;;5025380;28;20522;-65
2022/12/01 06:23:26;;;;;;;132.17;43.43;;;;;;;;;;5029088;28;20203;-65
2022/12/01 06:25:52;;;;;;;121.73;41.20;;;;;;;;;;5027602;28;20227;-65
2022/12/01 06:28:18;;;;;;;126.23;40.27;;;;;;;;;;5027325;28;20179;-66
2022/12/01 06:30:44;;;;;;;115.27;41.70;;;;;;;;;;5029258;28;20177;-65
2022/12/01 06:33:09;;;;;;;124.17;43.13;;;;;;;;;;5026268;28;20186;-65
2022/12/01 06:35:35;;;;;;;113.57;40.10;;;;;;;;;;5026010;28;20195;-66
2022/12/01 06:38:01;;;;;;;126.70;42.93;;;;;;;;;;5025966;28;20182;-66
2022/12/01 06:40:27;;;;;;;117.60;40.50;;;;;;;;;;5020932;28;20732;-66
2022/12/01 06:42:52;;;;;;;112.60;42.23;;;;;;;;;;5033397;28;20247;-65
2022/12/01 06:45:18;;;;;;;116.70;41.30;;;;;;;;;;5023888;28;20263;-66
2022/12/01 06:47:43;;;;;;;115.17;40.90;;;;;;;;;;5021509;28;20216;-66
2022/12/01 06:50:10;;;;;;;117.87;40.57;;;;;;;;;;5028925;28;20261;-65
2022/12/01 06:52:36;;;;;;;107.23;39.33;;;;;;;;;;5020576;28;20194;-66
2022/12/01 06:55:03;;;;;;;102.73;39.80;;;;;;;;;;5012330;28;20411;-65
2022/12/01 06:57:29;;;;;;;98.90;37.43;;;;;;;;;;5010012;28;20269;-66
2022/12/01 06:59:54;;;;;;;103.67;39.37;;;;;;;;;;5012526;28;20349;-66
2022/12/01 07:02:20;;;;;;;107.33;38.83;;;;;;;;;;5012751;28;20190;-65
2022/12/01 07:04:45;;;;;;;102.10;38.27;;;;;;;;;;5019563;28;20338;-65
2022/12/01 07:07:11;;;;;;;94.57;36.90;;;;;;;;;;5031045;28;20360;-66
2022/12/01 07:09:37;;;;;;;103.07;37.37;;;;;;;;;;5019736;28;20273;-66
2022/12/01 07:12:02;;;;;;;107.90;37.73;;;;;;;;;;5020113;28;20182;-65
2022/12/01 07:14:29;;;;;;;97.67;36.37;;;;;;;;;;5029155;28;20190;-65
2022/12/01 07:16:55;;;;;;;96.40;36.67;;;;;;;;;;5023520;28;20513;-65
2022/12/01 07:19:20;;;;;;;99.83;36.80;;;;;;;;;;5031430;28;20182;-65
2022/12/01 07:21:45;;;;;;;100.77;36.17;;;;;;;;;;5015476;28;20206;-65
2022/12/01 07:24:13;;;;;;;90.23;35.13;;;;;;;;;;5033016;28;20185;-65
2022/12/01 07:26:39;;;;;;;96.80;35.87;;;;;;;;;;5029982;28;20625;-65
2022/12/01 07:29:05;;;;;;;97.50;36.20;;;;;;;;;;5027220;28;20276;-65
2022/12/01 07:31:30;;;;;;;91.43;35.40;;;;;;;;;;5014962;28;20678;-67
2022/12/01 07:33:56;;;;;;;97.37;37.07;;;;;;;;;;5012430;28;20619;-66
2022/12/01 07:36:21;;;;;;;98.73;35.63;;;;;;;;;;5009489;28;20175;-67
2022/12/01 07:38:46;;;;;;;96.50;36.03;;;;;;;;;;5006031;28;20282;-66
2022/12/01 07:41:20;;;;;;;92.60;34.90;;;;;;;;;;5010552;28;20853;-65
2022/12/01 07:43:46;;;;;;;91.33;35.33;;;;;;;;;;5010777;28;20218;-66
2022/12/01 07:46:24;;;;;;;93.17;34.17;;;;;;;;;;5008077;28;20193;-65
2022/12/01 07:48:50;;;;;;;97.97;35.07;;;;;;;;;;5009085;28;20222;-65
2022/12/01 07:51:16;;;;;;;94.00;36.40;;;;;;;;;;5009918;28;20588;-66
2022/12/01 07:53:43;;;;;;;93.43;35.53;;;;;;;;;;5016158;28;20519;-66
2022/12/01 07:56:08;;;;;;;92.70;35.00;;;;;;;;;;5014113;28;20181;-65
2022/12/01 07:58:34;;;;;;;95.77;33.87;;;;;;;;;;5018490;28;20191;-66
2022/12/01 08:01:08;;;;;;;96.73;35.33;;;;;;;;;;5011223;28;20222;-66
2022/12/01 08:03:34;;;;;;;96.90;36.60;;;;;;;;;;5011280;28;20269;-66
2022/12/01 08:06:00;;;;;;;91.87;36.53;;;;;;;;;;5010048;28;20701;-65
2022/12/01 08:08:26;;;;;;;98.20;35.83;;;;;;;;;;5011776;28;20189;-64
2022/12/01 08:10:52;;;;;;;93.50;35.60;;;;;;;;;;5009248;28;20564;-64
2022/12/01 08:13:18;;;;;;;98.60;37.00;;;;;;;;;;5008736;28;20178;-64
2022/12/01 08:15:43;;;;;;;88.60;35.63;;;;;;;;;;5009408;28;20600;-64
2022/12/01 08:18:08;;;;;;;109.87;36.10;;;;;;;;;;5011284;28;20197;-65
2022/12/01 08:20:34;;;;;;;98.90;36.73;;;;;;;;;;5012429;28;20214;-66
2022/12/01 08:23:00;;;;;;;102.10;36.37;;;;;;;;;;5012293;28;20183;-65
2022/12/01 08:25:26;;;;;;;101.83;38.20;;;;;;;;;;5012191;28;20214;-64
2022/12/01 08:27:52;;;;;;;97.60;38.27;;;;;;;;;;5008375;28;20550;-64
2022/12/01 08:30:17;;;;;;;98.83;38.17;;;;;;;;;;5012010;28;20202;-64
2022/12/01 08:32:42;;;;;;;106.77;38.43;;;;;;;;;;5007299;28;20604;-65
2022/12/01 08:35:08;;;;;;;104.60;39.33;;;;;;;;;;5008812;28;20615;-65
2022/12/01 08:37:33;;;;;;;104.00;38.97;;;;;;;;;;5009528;28;20206;-65
2022/12/01 08:39:59;;;;;;;101.17;37.57;;;;;;;;;;5009721;28;20673;-65
2022/12/01 08:42:24;;;;;;;94.47;37.33;;;;;;;;;;5010427;28;20183;-64
2022/12/01 08:44:49;;;;;;;103.60;38.57;;;;;;;;;;5025185;28;20175;-64
2022/12/01 08:47:15;;;;;;;94.93;36.83;;;;;;;;;;5014301;28;20190;-64
2022/12/01 08:49:40;;;;;;;98.87;38.67;;;;;;;;;;5026468;28;20190;-64
2022/12/01 08:52:05;;;;;;;97.10;39.27;;;;;;;;;;5010813;28;20191;-64
2022/12/01 08:54:31;;;;;;;92.77;37.23;;;;;;;;;;5013290;28;20639;-64
2022/12/01 08:56:56;;;;;;;110.80;39.63;;;;;;;;;;5020415;28;20186;-64
2022/12/01 08:59:21;;;;;;;99.00;37.90;;;;;;;;;;5028702;28;20182;-64
2022/12/01 09:01:52;;;;;;;98.73;37.83;;;;;;;;;;5016010;28;20381;-64
2022/12/01 09:04:19;;;;;;;105.80;38.80;;;;;;;;;;5011199;28;20194;-64
2022/12/01 09:06:47;;;;;;;91.03;36.33;;;;;;;;;;5018111;28;20646;-64
2022/12/01 09:09:15;;;;;;;101.20;38.57;;;;;;;;;;5015510;28;20187;-64
2022/12/01 09:11:44;;;;;;;107.43;38.07;;;;;;;;;;5017612;28;20202;-64
2022/12/01 09:14:11;;;;;;;96.43;35.93;;;;;;;;;;5021521;28;20224;-64
2022/12/01 09:16:37;;;;;;;91.20;36.13;;;;;;;;;;5014184;28;20260;-64
2022/12/01 09:19:03;;;;;;;91.93;35.40;;;;;;;;;;5031931;28;20184;-64
2022/12/01 09:21:30;;;;;;;95.30;38.17;;;;;;;;;;5024947;28;20540;-64
2022/12/01 09:23:56;;;;;;;96.60;37.57;;;;;;;;;;5018026;28;20585;-65
2022/12/01 09:26:22;;;;;;;99.40;38.40;;;;;;;;;;5011288;28;20186;-64
2022/12/01 09:29:02;;;;;;;95.07;37.00;;;;;;;;;;5015800;28;20237;-64
2022/12/01 09:31:28;;;;;;;91.03;35.33;;;;;;;;;;5011098;28;20630;-64
2022/12/01 09:33:59;;;;;;;94.63;35.20;;;;;;;;;;5015667;28;20187;-64
2022/12/01 09:36:25;;;;;;;85.43;34.37;;;;;;;;;;5014786;28;20179;-65
2022/12/01 09:38:50;;;;;;;91.93;36.03;;;;;;;;;;5018944;28;20192;-65
2022/12/01 09:41:39;;;;;;;92.80;36.93;;;;;;;;;;5018924;28;20276;-65
2022/12/01 09:44:38;;;;;;;91.17;34.77;;;;;;;;;;5015168;28;20252;-65
2022/12/01 09:47:32;;;;;;;91.37;35.53;;;;;;;;;;5016224;28;20245;-65
2022/12/01 09:50:17;;;;;;;89.83;34.23;;;;;;;;;;5012828;28;20179;-66
2022/12/01 09:52:50;;;;;;;86.40;34.07;;;;;;;;;;5011470;28;20262;-65
2022/12/01 09:55:18;;;;;;;86.93;34.13;;;;;;;;;;5013814;28;20672;-65
2022/12/01 09:57:47;;;;;;;79.40;32.60;;;;;;;;;;5015228;28;20201;-65
2022/12/01 10:00:19;;;;;;;87.30;34.33;;;;;;;;;;5011537;28;20310;-65
2022/12/01 10:03:22;;;;;;;85.53;33.73;;;;;;;;;;5011266;28;20274;-65
2022/12/01 10:05:51;;;;;;;82.60;32.73;;;;;;;;;;5010852;28;20186;-65
2022/12/01 10:08:24;;;;;;;79.60;33.27;;;;;;;;;;5010921;28;20213;-65
2022/12/01 10:10:53;;;;;;;73.07;32.17;;;;;;;;;;5016307;28;20171;-65
2022/12/01 10:13:24;;;;;;;79.97;33.00;;;;;;;;;;5014244;28;20233;-65
2022/12/01 10:15:52;;;;;;;75.93;32.27;;;;;;;;;;5014283;28;20252;-65
2022/12/01 10:18:45;;;;;;;68.77;31.47;;;;;;;;;;5012763;28;20175;-65
2022/12/01 10:21:41;;;;;;;83.87;34.80;;;;;;;;;;5010860;28;20286;-65
2022/12/01 10:24:31;;;;;;;77.67;32.10;;;;;;;;;;5011810;28;20182;-65
2022/12/01 10:27:42;;;;;;;76.20;32.13;;;;;;;;;;5020137;28;20191;-65
2022/12/01 10:30:17;;;;;;;79.97;33.87;;;;;;;;;;5010656;28;20189;-64
2022/12/01 10:32:55;;;;;;;82.47;33.27;;;;;;;;;;5016163;28;20197;-65
2022/12/01 10:35:23;;;;;;;73.80;31.90;;;;;;;;;;5034033;28;20185;-64
2022/12/01 10:37:59;;;;;;;74.30;32.53;;;;;;;;;;5026241;28;20199;-64
2022/12/01 10:40:26;;;;;;;77.73;32.10;;;;;;;;;;5038892;28;20194;-64
2022/12/01 10:42:52;;;;;;;69.83;31.57;;;;;;;;;;5025380;28;20198;-64
2022/12/01 10:45:22;;;;;;;72.00;32.37;;;;;;;;;;5034511;28;20185;-64
2022/12/01 10:48:07;;;;;;;76.43;32.07;;;;;;;;;;5019185;28;20701;-65
2022/12/01 10:50:33;;;;;;;71.03;31.73;;;;;;;;;;5013068;28;20190;-66
2022/12/01 10:52:58;;;;;;;76.70;31.73;;;;;;;;;;5023611;28;20216;-64
2022/12/01 10:55:31;;;;;;;72.83;31.87;;;;;;;;;;5014580;28;20183;-64
2022/12/01 10:57:59;;;;;;;70.37;31.43;;;;;;;;;;5009631;28;20312;-65
2022/12/01 11:00:35;;;;;;;72.43;30.93;;;;;;;;;;5011689;28;20233;-65
2022/12/01 11:03:02;;;;;;;71.78;31.60;;;;;;;;;;5013957;28;20183;-64
2022/12/01 11:05:31;;;;;;;66.83;31.03;;;;;;;;;;5011116;28;20237;-65
2022/12/01 11:07:57;;;;;;;72.47;30.57;;;;;;;;;;5010757;28;20281;-66
2022/12/01 11:10:28;;;;;;;71.47;31.80;;;;;;;;;;5023101;28;20218;-65
2022/12/01 11:13:21;;;;;;;71.37;31.57;;;;;;;;;;5012300;28;20866;-66
2022/12/01 11:15:51;;;;;;;74.43;32.03;;;;;;;;;;5013990;28;20183;-66
2022/12/01 11:18:36;;;;;;;73.70;32.57;;;;;;;;;;5015712;28;20187;-66
2022/12/01 11:21:08;;;;;;;74.67;32.43;;;;;;;;;;5012553;28;20764;-66
2022/12/01 11:23:36;;;;;;;65.43;29.70;;;;;;;;;;5010834;28;20198;-66
2022/12/01 11:26:13;;;;;;;66.97;29.70;;;;;;;;;;5008291;28;20177;-66
2022/12/01 11:28:51;;;;;;;64.83;29.57;;;;;;;;;;5011512;28;20178;-66
2022/12/01 11:31:18;;;;;;;64.23;29.87;;;;;;;;;;5011294;28;20174;-66
2022/12/01 11:33:52;;;;;;;66.10;29.83;;;;;;;;;;5009737;28;20178;-66
2022/12/01 11:36:36;;;;;;;62.80;29.37;;;;;;;;;;5021701;28;20633;-65
2022/12/01 11:39:01;;;;;;;57.67;27.47;;;;;;;;;;5027686;28;20182;-65
2022/12/01 11:41:35;;;;;;;62.23;28.33;;;;;;;;;;5039933;28;20204;-65
2022/12/01 11:44:02;;;;;;;58.03;26.90;;;;;;;;;;5028152;28;20189;-65
2022/12/01 11:46:38;;;;;;;60.30;27.90;;;;;;;;;;5008521;28;20178;-66
2022/12/01 11:49:05;;;;;;;59.60;29.13;;;;;;;;;;5011718;28;20210;-65
2022/12/01 11:51:36;;;;;;;58.87;27.83;;;;;;;;;;5011827;28;20175;-65
2022/12/01 11:54:12;;;;;;;54.80;26.90;;;;;;;;;;5009891;28;20245;-65
2022/12/01 11:56:38;;;;;;;63.33;27.17;;;;;;;;;;5011378;28;20206;-65
2022/12/01 11:59:09;;;;;;;55.63;27.67;;;;;;;;;;5010323;28;20237;-65
2022/12/01 12:01:44;;;;;;;55.53;27.13;;;;;;;;;;5010706;28;20246;-65
2022/12/01 12:04:47;;;;;;;53.53;27.10;;;;;;;;;;5009018;28;20186;-65
2022/12/01 12:07:19;;;;;;;58.27;28.07;;;;;;;;;;5025381;28;20638;-66
2022/12/01 12:09:47;;;;;;;56.63;27.37;;;;;;;;;;5025944;28;20202;-65
2022/12/01 12:12:31;;;;;;;56.30;26.73;;;;;;;;;;5026161;28;20173;-65
2022/12/01 12:15:33;;;;;;;57.47;27.57;;;;;;;;;;5027979;28;20308;-65
2022/12/01 12:18:20;;;;;;;55.80;26.30;;;;;;;;;;5009345;28;20183;-65
2022/12/01 12:20:57;;;;;;;56.87;27.43;;;;;;;;;;5042462;28;20201;-65
2022/12/01 12:23:47;;;;;;;59.93;27.77;;;;;;;;;;5026248;28;20675;-65
2022/12/01 12:26:20;;;;;;;57.90;28.13;;;;;;;;;;5024350;28;20263;-65
2022/12/01 12:28:53;;;;;;;62.03;28.90;;;;;;;;;;5044952;28;20185;-65
2022/12/01 12:31:33;;;;;;;58.40;29.60;;;;;;;;;;5046630;28;20706;-65
2022/12/01 12:34:13;;;;;;;67.43;30.23;;;;;;;;;;5039762;28;20378;-65
2022/12/01 12:36:57;;;;;;;65.20;30.20;;;;;;;;;;5018175;28;20182;-65
2022/12/01 12:39:38;;;;;;;60.87;28.17;;;;;;;;;;5013645;28;20686;-65
2022/12/01 12:42:16;;;;;;;60.37;28.77;;;;;;;;;;5014020;28;20206;-65
2022/12/01 12:44:54;;;;;;;62.40;29.13;;;;;;;;;;5011870;28;20560;-65
2022/12/01 12:47:47;;;;;;;56.23;28.33;;;;;;;;;;5010870;28;20177;-65
2022/12/01 12:50:23;;;;;;;59.17;27.70;;;;;;;;;;5009992;28;20171;-65
2022/12/01 12:52:53;;;;;;;64.17;29.40;;;;;;;;;;5011943;28;20182;-65
2022/12/01 12:55:38;;;;;;;55.87;27.93;;;;;;;;;;5012121;28;20281;-65
2022/12/01 12:58:28;;;;;;;53.73;26.33;;;;;;;;;;5010262;28;20198;-65
2022/12/01 13:01:11;;;;;;;57.27;27.30;;;;;;;;;;5015810;28;20219;-65
2022/12/01 13:03:55;;;;;;;54.83;26.63;;;;;;;;;;5018196;28;20649;-65
2022/12/01 13:06:35;;;;;;;48.70;24.57;;;;;;;;;;5018679;28;20183;-65
2022/12/01 13:09:22;;;;;;;51.13;26.77;;;;;;;;;;5014599;28;20649;-66
2022/12/01 13:12:05;;;;;;;52.30;25.67;;;;;;;;;;5009444;28;20280;-65
2022/12/01 13:14:54;;;;;;;53.77;26.30;;;;;;;;;;5008378;28;20184;-65
2022/12/01 13:17:24;;;;;;;50.50;25.27;;;;;;;;;;5013987;28;20239;-65
2022/12/01 13:19:50;;;;;;;49.40;25.83;;;;;;;;;;5012143;28;20244;-65
2022/12/01 13:22:18;;;;;;;52.83;25.80;;;;;;;;;;5012165;28;20842;-64
2022/12/01 13:24:43;;;;;;;55.20;27.00;;;;;;;;;;5008620;28;20471;-65
2022/12/01 13:27:08;;;;;;;56.00;27.00;;;;;;;;;;5010131;28;20190;-65
2022/12/01 13:29:37;;;;;;;58.53;28.77;;;;;;;;;;5008880;28;20511;-65
2022/12/01 13:32:04;;;;;;;57.07;27.77;;;;;;;;;;5011590;28;20182;-65
2022/12/01 13:34:40;;;;;;;61.53;28.93;;;;;;;;;;5013461;28;20213;-65
2022/12/01 13:37:08;;;;;;;66.13;29.93;;;;;;;;;;5012165;28;20183;-64
2022/12/01 13:39:36;;;;;;;62.53;30.63;;;;;;;;;;5014960;28;20322;-64
2022/12/01 13:42:03;;;;;;;60.40;27.83;;;;;;;;;;5015420;28;20202;-64
2022/12/01 13:44:40;;;;;;;63.67;29.97;;;;;;;;;;5012526;28;20182;-65
2022/12/01 13:47:11;;;;;;;62.20;29.50;;;;;;;;;;5021032;28;20184;-65
2022/12/01 13:49:42;;;;;;;58.30;28.20;;;;;;;;;;5019655;28;20228;-65
2022/12/01 13:52:19;;;;;;;62.47;29.17;;;;;;;;;;5020447;28;20645;-65
2022/12/01 13:55:06;;;;;;;62.87;29.77;;;;;;;;;;5013469;28;20712;-65
2022/12/01 13:57:48;;;;;;;63.53;28.97;;;;;;;;;;5013997;28;20655;-65
2022/12/01 14:00:29;;;;;;;61.47;28.70;;;;;;;;;;4324143;28;10000726;-65
2022/12/01 14:03:16;;;;;;;63.67;28.83;;;;;;;;;;5025734;28;20193;-65
2022/12/01 14:05:42;;;;;;;58.90;28.37;;;;;;;;;;5008076;28;20175;-66
2022/12/01 14:08:23;;;;;;;58.00;28.60;;;;;;;;;;5034019;28;20272;-66
2022/12/01 14:10:52;;;;;;;58.10;28.27;;;;;;;;;;5028833;28;20306;-66
2022/12/01 14:13:20;;;;;;;58.73;28.37;;;;;;;;;;5022149;28;20182;-65
2022/12/01 14:16:01;;;;;;;58.13;28.03;;;;;;;;;;5017750;28;20412;-66
2022/12/01 14:18:36;;;;;;;58.60;28.50;;;;;;;;;;5020600;28;20183;-65
2022/12/01 14:21:05;;;;;;;57.13;28.93;;;;;;;;;;5042026;28;20200;-65
2022/12/01 14:23:33;;;;;;;55.13;27.57;;;;;;;;;;5024918;28;20219;-65
2022/12/01 14:26:10;;;;;;;57.43;27.47;;;;;;;;;;5023107;28;20197;-65
2022/12/01 14:28:53;;;;;;;50.57;26.80;;;;;;;;;;5031605;28;20181;-65
2022/12/01 14:31:20;;;;;;;55.73;26.53;;;;;;;;;;5029020;28;20185;-65
2022/12/01 14:33:57;;;;;;;53.00;25.70;;;;;;;;;;5027942;28;20236;-65
2022/12/01 14:36:22;;;;;;;59.30;27.37;;;;;;;;;;5030555;28;20696;-65
2022/12/01 14:39:03;;;;;;;55.67;26.33;;;;;;;;;;5022530;28;20184;-65
2022/12/01 14:41:36;;;;;;;59.93;26.43;;;;;;;;;;5027432;28;20700;-66
2022/12/01 14:44:08;;;;;;;58.40;26.77;;;;;;;;;;5022430;28;20194;-64
2022/12/01 14:46:42;;;;;;;58.20;26.80;;;;;;;;;;5027043;28;20556;-65